Grace Chapel, North Carolina
Current Conditions -  °F | °C
As of 7:53 AM on Tuesday 21 Oct 2014 (Local Time) from KHKY Reporting Station
Clear Clear  
Wind Chill: 50°   Ceiling: Unl
Heat Index: 50°   Visibility: 10mi
Dew Point: 48°   Wind: 6mph
Humidity: 93%   Direction: 310°NW
Pressure: 29.95"   Gusts: NA
Location:  35.83°N, 81.4147°W
Report Text: KHKY 211153Z AUTO 31005KT 10SM CLR 10/09 A2995 RMK AO2 SLP129 70002 T01000089 10117 20089 53004
Loading
Personal Weather Stations






























Interactive Weather Map
Tropical Storm Tracking
New forecast layout! Learn more

10-Day Weather Forecast

Advertisements
Track Severe Weather on mobile